createdAt,value
2019-04-21T04:01:23.407Z,0.00
2019-04-21T04:02:34.485Z,0.00
2019-04-21T04:04:34.190Z,0.00
2019-04-21T04:05:49.509Z,0.00
2019-04-21T04:06:38.682Z,5.63
2019-04-21T04:08:47.573Z,5.63
2019-04-21T04:09:40.029Z,5.63
2019-04-21T04:10:39.133Z,5.63
2019-04-21T04:11:37.668Z,5.63
2019-04-21T04:13:51.867Z,11.25
2019-04-21T04:14:38.846Z,11.25
2019-04-21T04:15:39.069Z,11.25
2019-04-21T04:19:40.135Z,11.25
2019-04-21T04:20:35.562Z,16.88
2019-04-21T04:21:37.186Z,22.50
2019-04-21T04:22:45.582Z,22.50
2019-04-21T04:23:42.480Z,22.50
2019-04-21T04:25:25.406Z,28.13
2019-04-21T04:28:50.034Z,33.75
2019-04-21T04:31:37.800Z,39.38
2019-04-21T04:33:48.837Z,45.00
2019-04-21T04:34:41.594Z,45.00
2019-04-21T04:35:49.536Z,45.00
2019-04-21T04:37:36.219Z,50.63
2019-04-21T04:38:39.286Z,56.25
2019-04-21T04:42:45.916Z,56.25
2019-04-21T04:43:35.109Z,5.63
2019-04-21T04:44:55.502Z,56.25
2019-04-21T04:45:41.579Z,73.13
2019-04-21T04:46:44.294Z,73.13
2019-04-21T04:50:50.097Z,78.75
2019-04-21T04:51:56.707Z,50.63
2019-04-21T04:55:43.424Z,5.63
2019-04-21T04:56:40.531Z,84.38
2019-04-21T04:57:53.120Z,90.00
2019-04-21T04:58:59.525Z,95.63
2019-04-21T04:59:42.671Z,101.25
2019-04-21T05:02:00.187Z,90.00
2019-04-21T05:05:53.351Z,84.38
2019-04-21T05:06:46.956Z,112.50
2019-04-21T05:07:52.541Z,118.13
2019-04-21T05:08:56.021Z,118.13
2019-04-21T05:09:54.915Z,123.75
2019-04-21T05:10:59.178Z,123.75
2019-04-21T05:12:38.797Z,129.38
2019-04-21T05:13:51.416Z,123.75
2019-04-21T05:15:42.099Z,129.38
2019-04-21T05:17:43.498Z,118.13
2019-04-21T05:18:52.840Z,140.63
2019-04-21T05:19:54.046Z,129.38
2019-04-21T05:20:41.589Z,129.38
2019-04-21T05:21:40.557Z,146.25
2019-04-21T05:22:35.475Z,112.50
2019-04-21T05:23:31.254Z,151.88
2019-04-21T05:24:36.111Z,129.38
2019-04-21T05:25:30.732Z,140.63
2019-04-21T05:26:29.935Z,157.50
2019-04-21T05:27:30.768Z,157.50
2019-04-21T05:28:29.926Z,157.50
2019-04-21T05:29:29.589Z,129.38
2019-04-21T05:30:45.474Z,157.50
2019-04-21T05:31:40.134Z,163.13
2019-04-21T05:32:41.651Z,140.63
2019-04-21T05:33:38.515Z,168.75
2019-04-21T05:34:37.399Z,11.25
2019-04-21T05:35:41.738Z,174.38
2019-04-21T05:36:37.927Z,180.00
2019-04-21T05:37:35.006Z,140.63
2019-04-21T05:38:31.507Z,180.00
2019-04-21T05:39:36.255Z,185.63
2019-04-21T05:40:33.533Z,191.25
2019-04-21T05:41:29.069Z,135.00
2019-04-21T05:42:36.384Z,191.25
2019-04-21T05:43:42.041Z,123.75
2019-04-21T05:45:44.190Z,213.75
2019-04-21T05:46:46.617Z,213.75
2019-04-21T05:47:40.101Z,95.63
2019-04-21T05:48:39.905Z,180.00
2019-04-21T05:49:33.775Z,225.00
2019-04-21T05:50:39.932Z,230.63
2019-04-21T05:51:37.347Z,230.63
2019-04-21T05:52:32.921Z,230.63
2019-04-21T05:53:45.582Z,241.88
2019-04-21T05:55:00.917Z,241.88
2019-04-21T05:55:46.606Z,202.50
2019-04-21T05:56:40.633Z,241.88
2019-04-21T05:57:44.207Z,241.88
2019-04-21T05:58:43.761Z,225.00
2019-04-21T05:59:43.579Z,253.13
2019-04-21T06:00:59.394Z,241.88
2019-04-21T06:02:06.169Z,258.75
2019-04-21T06:02:41.937Z,253.13
2019-04-21T06:05:53.302Z,50.63
2019-04-21T06:06:55.009Z,253.13
2019-04-21T06:07:39.473Z,270.00
2019-04-21T06:08:42.396Z,270.00
2019-04-21T06:09:52.502Z,270.00
2019-04-21T06:10:47.427Z,247.50
2019-04-21T06:11:49.031Z,270.00
2019-04-21T06:12:55.406Z,275.63
2019-04-21T06:13:48.625Z,281.25
2019-04-21T06:14:50.838Z,67.50
2019-04-21T06:15:52.910Z,281.25
2019-04-21T06:16:48.002Z,292.50
2019-04-21T06:17:50.868Z,286.88
2019-04-21T06:19:52.663Z,292.50
2019-04-21T06:20:49.266Z,298.13
2019-04-21T06:21:44.758Z,298.13
2019-04-21T06:22:50.619Z,298.13
2019-04-21T06:23:44.737Z,303.75
2019-04-21T06:25:18.634Z,315.00
2019-04-21T06:27:44.426Z,320.63
2019-04-21T06:29:52.731Z,315.00
2019-04-21T06:30:59.432Z,315.00
2019-04-21T06:32:16.708Z,320.63
2019-04-21T06:32:49.179Z,315.00
2019-04-21T06:35:08.365Z,326.25
2019-04-21T06:36:21.572Z,326.25
2019-04-21T06:37:01.718Z,331.88
2019-04-21T06:38:03.710Z,331.88
2019-04-21T06:38:59.664Z,337.50
2019-04-21T06:40:01.715Z,337.50
2019-04-21T06:40:49.859Z,343.13
2019-04-21T06:41:49.059Z,343.13
2019-04-21T06:43:09.507Z,343.13
2019-04-21T06:43:56.652Z,343.13
2019-04-21T06:44:54.508Z,348.75
2019-04-21T06:46:17.820Z,348.75
2019-04-21T06:46:59.420Z,354.38
2019-04-21T06:47:58.006Z,354.38
2019-04-21T06:48:55.709Z,354.38
2019-04-21T06:49:52.395Z,360.00
2019-04-21T06:50:52.601Z,360.00
2019-04-21T06:51:49.722Z,365.63
2019-04-21T06:52:54.948Z,365.63
2019-04-21T06:53:59.350Z,365.63
2019-04-21T06:54:56.068Z,365.63
2019-04-21T06:55:56.968Z,371.25
2019-04-21T06:56:51.290Z,371.25
2019-04-21T06:57:51.614Z,376.88
2019-04-21T06:58:51.420Z,371.25
2019-04-21T06:59:49.720Z,376.88
2019-04-21T07:00:47.620Z,382.50
2019-04-21T07:01:59.890Z,376.88
2019-04-21T07:03:04.383Z,382.50
2019-04-21T07:04:01.773Z,382.50
2019-04-21T07:04:54.365Z,382.50
2019-04-21T07:05:56.076Z,382.50
2019-04-21T07:06:54.658Z,382.50
2019-04-21T07:08:11.328Z,388.13
2019-04-21T07:09:08.092Z,388.13
2019-04-21T07:09:57.512Z,393.75
2019-04-21T07:10:59.476Z,393.75
2019-04-21T07:11:52.163Z,393.75
2019-04-21T07:12:51.608Z,388.13
2019-04-21T07:14:16.051Z,399.38
2019-04-21T07:14:54.719Z,399.38
2019-04-21T07:15:56.821Z,405.00
2019-04-21T07:16:58.253Z,405.00
2019-04-21T07:17:59.519Z,405.00
2019-04-21T07:20:02.441Z,410.63
2019-04-21T07:20:53.107Z,416.25
2019-04-21T07:21:55.534Z,416.25
2019-04-21T07:22:55.176Z,416.25
2019-04-21T07:24:02.037Z,416.25
2019-04-21T07:25:00.300Z,421.88
2019-04-21T07:26:00.375Z,421.88
2019-04-21T07:27:00.290Z,427.50
2019-04-21T07:27:59.233Z,427.50
2019-04-21T07:29:02.837Z,427.50
2019-04-21T07:30:02.592Z,427.50
2019-04-21T07:31:03.722Z,433.13
2019-04-21T07:33:09.214Z,444.38
2019-04-21T07:34:01.967Z,438.75
2019-04-21T07:35:03.623Z,438.75
2019-04-21T07:35:55.488Z,444.38
2019-04-21T07:37:00.965Z,444.38
2019-04-21T07:37:57.888Z,450.00
2019-04-21T07:38:57.276Z,450.00
2019-04-21T07:39:54.576Z,461.25
2019-04-21T07:40:54.706Z,461.25
2019-04-21T07:41:54.295Z,461.25
2019-04-21T07:42:54.175Z,466.88
2019-04-21T07:43:49.625Z,466.88
2019-04-21T07:44:55.049Z,472.50
2019-04-21T07:45:55.403Z,472.50
2019-04-21T07:46:49.258Z,478.13
2019-04-21T07:48:06.457Z,483.75
2019-04-21T07:49:02.878Z,489.38
2019-04-21T07:50:00.870Z,489.38
2019-04-21T07:51:07.527Z,495.00
2019-04-21T07:52:02.996Z,523.13
2019-04-21T07:56:19.918Z,540.00
2019-04-21T07:57:33.073Z,556.88
2019-04-21T07:58:36.989Z,573.75
2019-04-21T07:59:48.479Z,585.00
2019-04-21T08:00:36.884Z,596.25
2019-04-21T08:01:37.343Z,618.75
2019-04-21T08:03:35.523Z,646.88
2019-04-21T08:05:31.364Z,686.25
2019-04-21T08:06:43.702Z,708.75
2019-04-21T08:07:42.116Z,708.75
2019-04-21T08:08:34.259Z,720.00
2019-04-21T08:09:33.033Z,742.50
2019-04-21T08:10:34.524Z,776.25
2019-04-21T08:11:32.711Z,781.88
2019-04-21T08:12:30.619Z,787.50
2019-04-21T08:13:39.906Z,793.13
2019-04-21T08:14:35.310Z,804.38
2019-04-21T08:15:34.245Z,815.63
2019-04-21T08:16:37.337Z,826.88
2019-04-21T08:17:36.596Z,843.75
2019-04-21T08:18:47.442Z,866.25
2019-04-21T08:19:36.913Z,883.13
2019-04-21T08:20:34.933Z,905.63
2019-04-21T08:22:39.810Z,945.00
2019-04-21T08:23:37.110Z,961.88
2019-04-21T08:24:35.277Z,978.75
2019-04-21T08:25:47.681Z,1006.88
2019-04-21T08:26:42.219Z,1040.63
2019-04-21T08:27:40.426Z,1068.75
2019-04-21T08:28:42.647Z,1085.63
2019-04-21T08:29:39.456Z,1113.75
2019-04-21T08:30:37.803Z,1136.25
2019-04-21T08:31:51.676Z,1153.13
2019-04-21T08:32:51.493Z,1186.88
2019-04-21T08:34:43.208Z,1209.38
2019-04-21T08:36:04.798Z,1226.25
2019-04-21T08:36:46.170Z,1248.75
2019-04-21T08:37:38.029Z,1271.25
2019-04-21T08:38:41.744Z,1293.75
2019-04-21T08:39:49.576Z,1310.63
2019-04-21T08:40:40.880Z,1338.75
2019-04-21T08:41:39.440Z,1372.50
2019-04-21T08:42:43.542Z,1389.38
2019-04-21T08:43:42.634Z,1411.88
2019-04-21T08:44:43.193Z,1440.00
2019-04-21T08:45:45.295Z,1451.25
2019-04-21T08:46:38.738Z,1473.75
2019-04-21T08:47:39.729Z,1496.25
2019-04-21T08:48:42.264Z,1518.75
2019-04-21T08:49:41.447Z,1552.50
2019-04-21T08:50:37.668Z,1569.38
2019-04-21T08:52:00.770Z,1586.25
2019-04-21T08:53:02.345Z,1608.75
2019-04-21T08:53:47.547Z,1636.88
2019-04-21T08:54:43.535Z,1648.13
2019-04-21T08:55:49.003Z,1665.00
2019-04-21T08:56:41.615Z,1687.50
2019-04-21T08:57:50.840Z,1704.38
2019-04-21T08:58:44.643Z,1732.50
2019-04-21T08:59:43.499Z,1760.63
2019-04-21T09:00:46.826Z,1760.63
2019-04-21T09:01:47.360Z,1788.75
2019-04-21T09:02:40.376Z,1811.25
2019-04-21T09:03:44.773Z,1822.50
2019-04-21T09:04:41.186Z,1873.13
2019-04-21T09:05:45.075Z,1873.13
2019-04-21T09:06:58.696Z,1895.63
2019-04-21T09:07:49.589Z,1918.13
2019-04-21T09:08:46.233Z,1946.25
2019-04-21T09:09:52.759Z,1974.38
2019-04-21T09:10:44.412Z,2008.13
2019-04-21T09:11:46.194Z,2036.25
2019-04-21T09:12:43.331Z,2064.38
2019-04-21T09:13:44.572Z,2098.13
2019-04-21T09:14:45.783Z,2098.13
2019-04-21T09:15:41.897Z,2120.63
2019-04-21T09:16:41.086Z,2115.00
2019-04-21T09:17:39.547Z,2143.13
2019-04-21T09:18:43.323Z,2154.38
2019-04-21T09:19:51.078Z,2176.88
2019-04-21T09:22:00.614Z,2047.50
2019-04-21T09:22:52.576Z,1530.00
2019-04-21T09:23:47.048Z,950.63
2019-04-21T09:24:45.612Z,703.13
2019-04-21T09:25:47.307Z,703.13
2019-04-21T09:26:46.584Z,697.50
2019-04-21T09:27:44.037Z,697.50
2019-04-21T09:28:43.882Z,742.50
2019-04-21T09:29:38.315Z,1395.00
2019-04-21T09:30:37.475Z,1136.25
2019-04-21T09:31:33.803Z,2058.75
2019-04-21T09:32:31.427Z,2098.13
2019-04-21T09:33:35.699Z,1681.88
2019-04-21T09:34:33.169Z,2520.00
2019-04-21T09:35:29.286Z,2553.75
2019-04-21T09:36:38.214Z,2565.00
2019-04-21T09:37:41.826Z,2587.50
2019-04-21T09:38:36.241Z,2615.63
2019-04-21T09:39:32.905Z,2621.25
2019-04-21T09:40:36.499Z,2649.38
2019-04-21T09:41:34.252Z,2666.25
2019-04-21T09:42:35.991Z,2677.50
2019-04-21T09:43:41.244Z,2705.63
2019-04-21T09:44:36.519Z,2711.25
2019-04-21T09:45:31.062Z,2739.38
2019-04-21T09:46:34.131Z,2750.63
2019-04-21T09:47:40.421Z,2745.00
2019-04-21T09:48:44.242Z,2790.00
2019-04-21T09:49:33.946Z,2806.88
2019-04-21T09:50:34.502Z,2806.88
2019-04-21T09:51:32.585Z,2835.00
2019-04-21T09:52:41.820Z,2868.75
2019-04-21T09:53:36.723Z,2913.75
2019-04-21T09:54:35.814Z,2958.75
2019-04-21T09:55:42.969Z,2964.38
2019-04-21T09:56:41.518Z,2975.63
2019-04-21T09:57:41.290Z,3009.38
2019-04-21T09:58:40.323Z,3037.50
2019-04-21T09:59:39.817Z,3015.00
2019-04-21T10:00:47.076Z,3015.00
2019-04-21T10:01:49.086Z,3031.88
2019-04-21T10:02:42.593Z,3031.88
2019-04-21T10:03:41.305Z,3048.75
2019-04-21T10:04:35.590Z,3065.63
2019-04-21T10:05:34.622Z,3099.38
2019-04-21T10:06:35.032Z,3127.50
2019-04-21T10:07:39.138Z,3138.75
2019-04-21T10:08:36.301Z,3155.63
2019-04-21T10:09:35.635Z,3144.38
2019-04-21T10:10:36.452Z,3110.63
2019-04-21T10:11:35.707Z,3121.88
2019-04-21T10:12:37.249Z,3138.75
2019-04-21T10:13:36.262Z,3099.38
2019-04-21T10:14:36.588Z,3178.13
2019-04-21T10:15:37.540Z,3200.63
2019-04-21T10:16:36.601Z,3251.25
2019-04-21T10:17:37.460Z,3262.50
2019-04-21T10:18:37.959Z,3330.00
2019-04-21T10:19:37.138Z,3346.88
2019-04-21T10:20:38.476Z,3363.75
2019-04-21T10:21:38.069Z,3386.25
2019-04-21T10:22:39.217Z,3414.38
2019-04-21T10:23:37.858Z,3431.25
2019-04-21T10:24:38.350Z,3420.00
2019-04-21T10:25:38.730Z,3420.00
2019-04-21T10:26:38.399Z,3431.25
2019-04-21T10:27:39.195Z,3431.25
2019-04-21T10:28:39.132Z,3459.38
2019-04-21T10:29:42.872Z,3459.38
2019-04-21T10:30:40.612Z,3487.50
2019-04-21T10:31:40.647Z,3493.13
2019-04-21T10:32:40.612Z,3498.75
2019-04-21T10:33:39.974Z,3504.38
2019-04-21T10:34:41.113Z,3510.00
2019-04-21T10:35:41.220Z,3498.75
2019-04-21T10:36:40.792Z,3498.75
2019-04-21T10:37:49.828Z,3487.50
2019-04-21T10:38:46.420Z,3515.63
2019-04-21T10:39:41.848Z,3526.88
2019-04-21T10:40:41.490Z,3549.38
2019-04-21T10:41:41.518Z,3611.25
2019-04-21T10:42:42.410Z,3611.25
2019-04-21T10:43:42.774Z,3628.13
2019-04-21T10:44:43.059Z,3645.00
2019-04-21T10:45:43.154Z,3661.88
2019-04-21T10:46:42.829Z,3695.63
2019-04-21T10:47:43.067Z,3780.00
2019-04-21T10:48:43.139Z,3735.00
2019-04-21T10:49:42.577Z,3746.25
2019-04-21T10:50:43.138Z,3757.50
2019-04-21T10:51:43.337Z,3768.75
2019-04-21T10:52:43.125Z,3796.88
2019-04-21T10:53:43.331Z,3830.63
2019-04-21T10:55:06.786Z,3858.75
2019-04-21T10:55:57.913Z,3813.75
2019-04-21T10:56:45.594Z,3791.25
2019-04-21T10:57:44.390Z,3768.75
2019-04-21T10:58:44.592Z,3746.25
2019-04-21T10:59:47.931Z,3757.50
2019-04-21T11:00:46.007Z,3740.63
2019-04-21T11:01:45.251Z,3735.00
2019-04-21T11:02:44.950Z,3712.50
2019-04-21T11:03:45.135Z,3712.50
2019-04-21T11:04:45.718Z,3706.88
2019-04-21T11:05:45.504Z,3735.00
2019-04-21T11:06:46.433Z,3768.75
2019-04-21T11:07:55.322Z,3757.50
2019-04-21T11:08:50.314Z,3768.75
2019-04-21T11:09:46.398Z,3825.00
2019-04-21T11:10:47.757Z,3909.38
2019-04-21T11:11:48.716Z,3926.25
2019-04-21T11:12:47.857Z,3909.38
2019-04-21T11:13:46.997Z,3920.63
2019-04-21T11:14:47.248Z,3960.00
2019-04-21T11:15:47.539Z,3976.88
2019-04-21T11:16:49.273Z,4005.00
2019-04-21T11:17:48.865Z,4033.13
2019-04-21T11:18:48.277Z,4033.13
2019-04-21T11:19:48.600Z,4033.13
2019-04-21T11:20:48.915Z,4016.25
2019-04-21T11:21:49.328Z,4033.13
2019-04-21T11:22:49.354Z,4027.50
2019-04-21T11:23:50.043Z,4038.75
2019-04-21T11:24:49.176Z,4016.25
2019-04-21T11:25:49.571Z,3999.38
2019-04-21T11:26:49.683Z,4050.00
2019-04-21T11:27:51.085Z,4078.13
2019-04-21T11:28:50.539Z,4078.13
2019-04-21T11:29:49.929Z,4078.13
2019-04-21T11:30:50.977Z,4061.25
2019-04-21T11:31:51.362Z,4044.38
2019-04-21T11:32:51.135Z,4055.63
2019-04-21T11:33:51.226Z,4083.75
2019-04-21T11:34:51.506Z,4111.88
2019-04-21T11:35:51.253Z,4173.75
2019-04-21T11:36:52.250Z,4168.13
2019-04-21T11:37:52.454Z,4179.38
2019-04-21T11:39:07.270Z,4235.63
2019-04-21T11:39:57.920Z,4280.63
2019-04-21T11:40:51.954Z,4297.50
2019-04-21T11:41:52.157Z,4342.50
2019-04-21T11:42:53.563Z,4320.00
2019-04-21T11:43:53.094Z,4325.63
2019-04-21T11:44:53.449Z,4286.25
2019-04-21T11:45:52.885Z,4280.63
2019-04-21T11:46:54.276Z,4280.63
2019-04-21T11:47:54.433Z,4286.25
2019-04-21T11:48:54.709Z,4286.25
2019-04-21T11:49:54.856Z,4269.38
2019-04-21T11:50:55.079Z,4263.75
2019-04-21T11:51:55.119Z,4263.75
2019-04-21T11:52:54.849Z,4258.13
2019-04-21T11:53:54.984Z,4275.00
2019-04-21T11:54:55.074Z,4303.13
2019-04-21T11:55:55.567Z,4308.75
2019-04-21T11:56:54.927Z,4275.00
2019-04-21T11:57:56.419Z,4241.25
2019-04-21T11:58:55.289Z,4224.38
2019-04-21T11:59:55.563Z,4224.38
2019-04-21T12:00:55.789Z,4196.25
2019-04-21T12:01:57.181Z,4140.00
2019-04-21T12:02:57.483Z,4089.38
2019-04-21T12:03:56.217Z,4050.00
2019-04-21T12:04:57.265Z,4061.25
2019-04-21T12:05:57.391Z,4055.63
2019-04-21T12:06:57.914Z,4066.88
2019-04-21T12:07:58.466Z,4111.88
2019-04-21T12:08:59.303Z,4173.75
2019-04-21T12:09:57.604Z,4196.25
2019-04-21T12:10:57.783Z,4213.13
2019-04-21T12:11:58.846Z,4241.25
2019-04-21T12:12:59.140Z,4269.38
2019-04-21T12:13:58.420Z,4297.50
2019-04-21T12:14:58.242Z,4286.25
2019-04-21T12:15:59.041Z,4291.88
2019-04-21T12:16:59.314Z,4280.63
2019-04-21T12:17:59.625Z,4297.50
2019-04-21T12:18:58.985Z,4297.50
2019-04-21T12:19:59.170Z,4303.13
2019-04-21T12:20:59.356Z,4286.25
2019-04-21T12:22:09.730Z,4325.63
2019-04-21T12:23:00.409Z,4314.38
2019-04-21T12:24:00.673Z,4303.13
2019-04-21T12:25:00.862Z,4331.25
2019-04-21T12:26:01.254Z,4331.25
2019-04-21T12:27:00.474Z,4325.63
2019-04-21T12:28:01.710Z,4331.25
2019-04-21T12:29:01.833Z,4348.13
2019-04-21T12:30:02.055Z,4387.50
2019-04-21T12:31:01.217Z,4365.00
2019-04-21T12:32:01.452Z,4398.75
2019-04-21T12:33:02.270Z,4398.75
2019-04-21T12:34:01.770Z,4415.63
2019-04-21T12:35:01.972Z,4432.50
2019-04-21T12:36:02.142Z,4432.50
2019-04-21T12:37:02.341Z,4471.88
2019-04-21T12:38:02.867Z,4455.00
2019-04-21T12:39:05.097Z,4438.13
2019-04-21T12:40:03.307Z,4370.63
2019-04-21T12:41:04.480Z,4404.38
2019-04-21T12:42:04.636Z,4421.25
2019-04-21T12:43:03.439Z,4387.50
2019-04-21T12:44:04.595Z,4387.50
2019-04-21T12:45:03.811Z,4398.75
2019-04-21T12:46:04.278Z,4398.75
2019-04-21T12:47:04.181Z,4404.38
2019-04-21T12:48:04.380Z,4393.13
2019-04-21T12:49:04.562Z,4387.50
2019-04-21T12:50:04.750Z,4421.25
2019-04-21T12:51:06.093Z,4387.50
2019-04-21T12:52:05.968Z,4393.13
2019-04-21T12:53:05.464Z,4410.00
2019-04-21T12:54:05.845Z,4421.25
2019-04-21T12:55:05.833Z,4387.50
2019-04-21T12:56:05.867Z,4438.13
2019-04-21T12:57:07.572Z,4438.13
2019-04-21T12:58:07.565Z,4477.50
2019-04-21T12:59:06.420Z,4432.50
2019-04-21T13:00:06.802Z,4443.75
2019-04-21T13:01:07.155Z,4398.75
2019-04-21T13:02:07.484Z,4381.88
2019-04-21T13:03:07.801Z,4359.38
2019-04-21T13:04:08.162Z,4314.38
2019-04-21T13:05:07.589Z,4297.50
2019-04-21T13:06:07.730Z,4235.63
2019-04-21T13:07:07.942Z,4168.13
2019-04-21T13:08:09.184Z,4128.75
2019-04-21T13:09:11.134Z,4151.25
2019-04-21T13:10:08.595Z,4179.38
2019-04-21T13:11:09.559Z,4230.00
2019-04-21T13:12:09.010Z,4224.38
2019-04-21T13:13:10.059Z,4269.38
2019-04-21T13:14:09.207Z,4297.50
2019-04-21T13:15:10.770Z,4370.63
2019-04-21T13:16:09.741Z,4415.63
2019-04-21T13:17:10.007Z,4426.88
2019-04-21T13:18:10.167Z,4426.88
2019-04-21T13:19:11.365Z,4432.50
2019-04-21T13:20:11.482Z,4426.88
2019-04-21T13:21:11.900Z,4404.38
2019-04-21T13:22:12.100Z,4393.13
2019-04-21T13:23:12.204Z,4387.50
2019-04-21T13:24:11.625Z,4387.50
2019-04-21T13:25:11.893Z,4398.75
2019-04-21T13:26:11.499Z,4359.38
2019-04-21T13:27:12.743Z,4320.00
2019-04-21T13:28:12.498Z,4314.38
2019-04-21T13:29:12.277Z,4314.38
2019-04-21T13:30:12.616Z,4275.00
2019-04-21T13:31:12.375Z,4291.88
2019-04-21T13:32:12.675Z,4275.00
2019-04-21T13:33:13.381Z,4241.25
2019-04-21T13:34:13.790Z,4269.38
2019-04-21T13:35:13.115Z,4308.75
2019-04-21T13:36:13.927Z,4291.88
2019-04-21T13:37:13.486Z,4303.13
2019-04-21T13:38:23.121Z,4320.00
2019-04-21T13:39:49.120Z,4308.75
2019-04-21T13:40:34.119Z,4320.00
2019-04-21T13:41:31.083Z,4252.50
2019-04-21T13:42:24.061Z,4230.00
2019-04-21T13:43:14.994Z,4207.50
2019-04-21T13:44:15.662Z,4196.25
2019-04-21T13:45:16.281Z,4196.25
2019-04-21T13:46:15.499Z,4173.75
2019-04-21T13:47:16.671Z,4145.63
2019-04-21T13:48:16.784Z,4078.13
2019-04-21T13:49:17.066Z,4066.88
2019-04-21T13:50:17.246Z,4072.50
2019-04-21T13:51:17.466Z,4038.75
2019-04-21T13:52:16.286Z,4089.38
2019-04-21T13:53:16.725Z,4106.25
2019-04-21T13:54:17.867Z,4111.88
2019-04-21T13:55:16.847Z,4106.25
2019-04-21T13:56:18.359Z,4050.00
2019-04-21T13:57:18.521Z,4038.75
2019-04-21T13:58:17.414Z,4033.13
2019-04-21T13:59:18.317Z,4072.50
2019-04-21T14:00:19.325Z,4055.63
2019-04-21T14:01:18.133Z,4066.88
2019-04-21T14:02:18.546Z,4072.50
2019-04-21T14:03:21.017Z,4089.38
2019-04-21T14:04:19.726Z,4095.00
2019-04-21T14:05:20.213Z,4100.63
2019-04-21T14:06:20.305Z,4128.75
2019-04-21T14:07:20.417Z,4168.13
2019-04-21T14:08:19.285Z,4162.50
2019-04-21T14:09:19.959Z,4190.63
2019-04-21T14:10:19.955Z,4173.75
2019-04-21T14:11:19.912Z,4196.25
2019-04-21T14:12:21.197Z,4156.88
2019-04-21T14:13:20.429Z,4151.25
2019-04-21T14:14:20.681Z,4111.88
2019-04-21T14:15:22.027Z,4078.13
2019-04-21T14:16:22.169Z,4038.75
2019-04-21T14:17:21.348Z,3993.75
2019-04-21T14:18:21.141Z,3982.50
2019-04-21T14:19:21.467Z,3948.75
2019-04-21T14:20:21.635Z,3937.50
2019-04-21T14:21:23.114Z,3909.38
2019-04-21T14:22:22.230Z,3892.50
2019-04-21T14:23:32.229Z,3881.25
2019-04-21T14:24:22.621Z,3864.38
2019-04-21T14:25:23.790Z,3847.50
2019-04-21T14:26:22.638Z,3808.13
2019-04-21T14:27:23.915Z,3774.38
2019-04-21T14:28:24.026Z,3768.75
2019-04-21T14:29:23.847Z,3757.50
2019-04-21T14:30:23.391Z,3751.88
2019-04-21T14:31:24.165Z,3729.38
2019-04-21T14:32:24.276Z,3706.88
2019-04-21T14:33:23.942Z,3723.75
2019-04-21T14:34:24.140Z,3740.63
2019-04-21T14:35:25.155Z,3740.63
2019-04-21T14:36:24.498Z,3706.88
2019-04-21T14:37:24.781Z,3706.88
2019-04-21T14:38:25.002Z,3678.75
2019-04-21T14:39:26.389Z,3650.63
2019-04-21T14:40:27.742Z,3667.50
2019-04-21T14:41:26.366Z,3656.25
2019-04-21T14:42:26.453Z,3673.13
2019-04-21T14:43:26.024Z,3690.00
2019-04-21T14:44:27.139Z,3690.00
2019-04-21T14:45:26.933Z,3729.38
2019-04-21T14:46:26.955Z,3751.88
2019-04-21T14:47:27.110Z,3735.00
2019-04-21T14:48:27.335Z,3701.25
2019-04-21T14:49:27.158Z,3690.00
2019-04-21T14:50:28.273Z,3616.88
2019-04-21T14:51:27.288Z,3521.25
2019-04-21T14:52:28.717Z,3397.50
2019-04-21T14:53:27.801Z,3296.25
2019-04-21T14:54:28.843Z,3262.50
2019-04-21T14:55:28.025Z,3279.38
2019-04-21T14:56:29.242Z,3313.13
2019-04-21T14:57:29.500Z,3307.50
2019-04-21T14:58:28.585Z,3273.75
2019-04-21T14:59:28.906Z,3245.63
2019-04-21T15:00:29.111Z,3240.00
2019-04-21T15:01:29.202Z,3268.13
2019-04-21T15:02:29.884Z,3251.25
2019-04-21T15:03:29.998Z,3234.38
2019-04-21T15:04:29.690Z,3228.75
2019-04-21T15:05:31.269Z,3273.75
2019-04-21T15:06:30.053Z,3273.75
2019-04-21T15:07:30.935Z,3268.13
2019-04-21T15:08:31.300Z,3240.00
2019-04-21T15:09:31.506Z,3223.13
2019-04-21T15:10:33.413Z,3189.38
2019-04-21T15:11:31.914Z,3183.75
2019-04-21T15:12:31.834Z,3166.88
2019-04-21T15:13:32.318Z,3116.25
2019-04-21T15:14:31.870Z,3099.38
2019-04-21T15:15:31.872Z,3093.75
2019-04-21T15:16:32.898Z,3082.50
2019-04-21T15:17:32.058Z,3088.13
2019-04-21T15:18:32.799Z,3099.38
2019-04-21T15:19:32.860Z,3099.38
2019-04-21T15:20:32.610Z,3082.50
2019-04-21T15:21:33.413Z,3088.13
2019-04-21T15:22:34.477Z,3099.38
2019-04-21T15:23:33.966Z,3031.88
2019-04-21T15:24:34.219Z,3020.63
2019-04-21T15:25:34.418Z,3009.38
2019-04-21T15:26:33.717Z,2964.38
2019-04-21T15:27:34.880Z,2947.50
2019-04-21T15:28:36.963Z,2902.50
2019-04-21T15:29:35.005Z,2857.50
2019-04-21T15:30:34.528Z,2818.13
2019-04-21T15:31:38.264Z,2773.13
2019-04-21T15:32:34.832Z,2728.13
2019-04-21T15:33:35.149Z,2677.50
2019-04-21T15:34:36.080Z,2655.00
2019-04-21T15:35:35.394Z,2615.63
2019-04-21T15:36:35.562Z,2587.50
2019-04-21T15:37:35.816Z,2548.13
2019-04-21T15:38:35.996Z,2536.88
2019-04-21T15:39:36.114Z,2531.25
2019-04-21T15:40:44.587Z,2542.50
2019-04-21T15:41:36.624Z,2542.50
2019-04-21T15:42:36.704Z,2536.88
2019-04-21T15:43:36.853Z,2559.38
2019-04-21T15:44:37.036Z,2565.00
2019-04-21T15:45:37.217Z,2542.50
2019-04-21T15:46:37.624Z,2542.50
2019-04-21T15:47:38.029Z,2536.88
2019-04-21T15:48:39.093Z,2514.38
2019-04-21T15:49:46.751Z,2520.00
2019-04-21T15:50:38.134Z,2508.75
2019-04-21T15:51:38.318Z,2520.00
2019-04-21T15:52:38.495Z,2514.38
2019-04-21T15:53:39.608Z,2508.75
2019-04-21T15:54:38.864Z,2452.50
2019-04-21T15:55:39.136Z,2424.38
2019-04-21T15:56:40.426Z,2396.25
2019-04-21T15:57:40.490Z,2098.13
2019-04-21T15:58:40.921Z,1693.13
2019-04-21T15:59:40.172Z,1361.25
2019-04-21T16:00:40.472Z,990.00
2019-04-21T16:01:40.821Z,1209.38
2019-04-21T16:02:40.500Z,1411.88
2019-04-21T16:03:40.710Z,1074.38
2019-04-21T16:04:40.982Z,731.25
2019-04-21T16:05:40.876Z,534.38
2019-04-21T16:06:41.618Z,545.63
2019-04-21T16:07:42.344Z,675.00
2019-04-21T16:08:42.727Z,826.88
2019-04-21T16:09:41.780Z,781.88
2019-04-21T16:10:48.976Z,686.25
2019-04-21T16:11:42.172Z,703.13
2019-04-21T16:12:43.650Z,708.75
2019-04-21T16:13:43.593Z,652.50
2019-04-21T16:14:42.828Z,815.63
2019-04-21T16:15:44.137Z,888.75
2019-04-21T16:16:43.305Z,725.63
2019-04-21T16:17:43.442Z,523.13
2019-04-21T16:18:43.234Z,517.50
2019-04-21T16:19:43.864Z,534.38
2019-04-21T16:20:43.960Z,472.50
2019-04-21T16:21:46.279Z,585.00
2019-04-21T16:22:44.614Z,731.25
2019-04-21T16:23:44.510Z,663.75
2019-04-21T16:24:44.310Z,461.25
2019-04-21T16:25:44.489Z,663.75
2019-04-21T16:26:44.706Z,607.50
2019-04-21T16:27:45.491Z,405.00
2019-04-21T16:28:45.069Z,466.88
2019-04-21T16:29:45.808Z,506.25
2019-04-21T16:30:46.577Z,438.75
2019-04-21T16:31:46.643Z,405.00
2019-04-21T16:32:46.032Z,528.75
2019-04-21T16:33:47.096Z,1012.50
2019-04-21T16:34:53.686Z,1153.13
2019-04-21T16:35:47.597Z,928.13
2019-04-21T16:36:47.585Z,691.88
2019-04-21T16:37:47.749Z,618.75
2019-04-21T16:38:47.252Z,855.00
2019-04-21T16:39:47.442Z,607.50
2019-04-21T16:40:55.574Z,360.00
2019-04-21T16:41:47.352Z,388.13
2019-04-21T16:42:47.993Z,405.00
2019-04-21T16:43:48.977Z,371.25
2019-04-21T16:44:48.906Z,360.00
2019-04-21T16:45:48.795Z,326.25
2019-04-21T16:46:49.442Z,348.75
2019-04-21T16:47:51.727Z,472.50
2019-04-21T16:48:49.611Z,641.25
2019-04-21T16:49:49.878Z,585.00
2019-04-21T16:50:49.816Z,360.00
2019-04-21T16:51:49.988Z,466.88
2019-04-21T16:52:49.978Z,669.38
2019-04-21T16:53:50.315Z,821.25
2019-04-21T16:54:49.797Z,607.50
2019-04-21T16:55:51.141Z,320.63
2019-04-21T16:56:50.165Z,292.50
2019-04-21T16:58:02.786Z,286.88
2019-04-21T16:58:50.558Z,281.25
2019-04-21T16:59:50.708Z,275.63
2019-04-21T17:01:00.692Z,281.25
2019-04-21T17:01:52.371Z,275.63
2019-04-21T17:02:52.374Z,264.38
2019-04-21T17:03:52.577Z,264.38
2019-04-21T17:04:52.126Z,258.75
2019-04-21T17:05:52.006Z,253.13
2019-04-21T17:06:53.220Z,247.50